sensor_id;sensor_type;location;lat;lon;timestamp;pressure;altitude;pressure_sealevel;temperature;humidity
67341;BME280;54227;45.198;5.732;2022-08-11T00:02:06;99176.97;;;29.74;37.98
67341;BME280;54227;45.198;5.732;2022-08-11T00:04:36;99183.06;;;29.73;37.66
67341;BME280;54227;45.198;5.732;2022-08-11T00:07:04;99185.06;;;29.72;37.68
67341;BME280;54227;45.198;5.732;2022-08-11T00:09:34;99191.94;;;29.71;38.13
67341;BME280;54227;45.198;5.732;2022-08-11T00:12:00;99191.94;;;29.71;38.14
67341;BME280;54227;45.198;5.732;2022-08-11T00:14:29;99189.91;;;29.72;38.12
67341;BME280;54227;45.198;5.732;2022-08-11T00:17:06;99191.50;;;29.73;37.95
67341;BME280;54227;45.198;5.732;2022-08-11T00:19:47;99195.53;;;29.72;37.72
67341;BME280;54227;45.198;5.732;2022-08-11T00:22:19;99201.16;;;29.72;37.82
67341;BME280;54227;45.198;5.732;2022-08-11T00:24:45;99203.47;;;29.77;37.87
67341;BME280;54227;45.198;5.732;2022-08-11T00:27:11;99194.66;;;29.75;37.73
67341;BME280;54227;45.198;5.732;2022-08-11T00:29:36;99197.94;;;29.73;38.17
67341;BME280;54227;45.198;5.732;2022-08-11T00:32:04;99193.53;;;29.72;37.81
67341;BME280;54227;45.198;5.732;2022-08-11T00:34:35;99191.94;;;29.71;37.95
67341;BME280;54227;45.198;5.732;2022-08-11T00:37:11;99192.72;;;29.72;37.78
67341;BME280;54227;45.198;5.732;2022-08-11T00:39:43;99198.34;;;29.72;38.11
67341;BME280;54227;45.198;5.732;2022-08-11T00:42:34;99199.59;;;29.71;38.12
67341;BME280;54227;45.198;5.732;2022-08-11T00:48:28;99204.00;;;29.72;38.09
67341;BME280;54227;45.198;5.732;2022-08-11T00:59:46;99219.31;;;29.71;38.25
67341;BME280;54227;45.198;5.732;2022-08-11T01:02:14;99213.69;;;29.71;38.00
67341;BME280;54227;45.198;5.732;2022-08-11T01:08:02;99209.63;;;29.72;37.88
67341;BME280;54227;45.198;5.732;2022-08-11T01:34:12;99218.53;;;29.70;38.06
67341;BME280;54227;45.198;5.732;2022-08-11T01:45:20;99230.59;;;29.71;38.29
67341;BME280;54227;45.198;5.732;2022-08-11T01:48:08;99231.84;;;29.70;38.17
67341;BME280;54227;45.198;5.732;2022-08-11T01:53:33;99241.88;;;29.71;38.33
67341;BME280;54227;45.198;5.732;2022-08-11T01:59:49;99227.44;;;29.69;38.41
67341;BME280;54227;45.198;5.732;2022-08-11T02:12:52;99226.53;;;29.72;38.13
67341;BME280;54227;45.198;5.732;2022-08-11T02:15:35;99228.22;;;29.69;38.05
67341;BME280;54227;45.198;5.732;2022-08-11T02:18:22;99224.97;;;29.71;38.07
67341;BME280;54227;45.198;5.732;2022-08-11T02:20:55;99228.56;;;29.71;38.34
67341;BME280;54227;45.198;5.732;2022-08-11T02:23:48;99222.16;;;29.71;37.98
67341;BME280;54227;45.198;5.732;2022-08-11T02:26:49;99221.72;;;29.72;38.21
67341;BME280;54227;45.198;5.732;2022-08-11T02:29:41;99225.34;;;29.73;38.33
67341;BME280;54227;45.198;5.732;2022-08-11T02:35:17;99227.72;;;29.74;38.41
67341;BME280;54227;45.198;5.732;2022-08-11T02:51:56;99217.56;;;29.77;38.08
67341;BME280;54227;45.198;5.732;2022-08-11T02:59:59;99222.41;;;29.76;38.42
67341;BME280;54227;45.198;5.732;2022-08-11T03:08:18;99218.34;;;29.77;38.31
67341;BME280;54227;45.198;5.732;2022-08-11T03:10:56;99219.59;;;29.76;38.27
67341;BME280;54227;45.198;5.732;2022-08-11T03:16:53;99225.56;;;29.78;38.38
67341;BME280;54227;45.198;5.732;2022-08-11T03:22:21;99226.75;;;29.81;38.44
67341;BME280;54227;45.198;5.732;2022-08-11T03:24:56;99230.81;;;29.80;38.12
67341;BME280;54227;45.198;5.732;2022-08-11T03:30:11;99225.56;;;29.78;38.01
67341;BME280;54227;45.198;5.732;2022-08-11T03:32:56;99227.19;;;29.79;38.08
67341;BME280;54227;45.198;5.732;2022-08-11T03:35:48;99216.69;;;29.80;37.98
67341;BME280;54227;45.198;5.732;2022-08-11T03:38:19;99217.13;;;29.78;38.30
67341;BME280;54227;45.198;5.732;2022-08-11T03:41:10;99224.78;;;29.78;38.14
67341;BME280;54227;45.198;5.732;2022-08-11T03:50:26;99230.34;;;29.81;38.23
67341;BME280;54227;45.198;5.732;2022-08-11T04:15:44;99258.44;;;29.85;37.90
67341;BME280;54227;45.198;5.732;2022-08-11T04:24:03;99267.00;;;29.81;37.99
67341;BME280;54227;45.198;5.732;2022-08-11T04:29:56;99257.75;;;29.81;38.38
67341;BME280;54227;45.198;5.732;2022-08-11T04:46:26;99274.69;;;29.81;38.07
67341;BME280;54227;45.198;5.732;2022-08-11T04:49:30;99279.53;;;29.80;38.09
67341;BME280;54227;45.198;5.732;2022-08-11T04:52:43;99283.13;;;29.81;38.35
67341;BME280;54227;45.198;5.732;2022-08-11T04:55:44;99279.34;;;29.87;37.89
67341;BME280;54227;45.198;5.732;2022-08-11T05:10:27;99290.00;;;29.80;38.24
67341;BME280;54227;45.198;5.732;2022-08-11T05:13:03;99292.47;;;29.78;37.95
67341;BME280;54227;45.198;5.732;2022-08-11T05:15:55;99295.66;;;29.80;38.13
67341;BME280;54227;45.198;5.732;2022-08-11T05:18:51;99299.69;;;29.79;37.89
67341;BME280;54227;45.198;5.732;2022-08-11T05:21:36;99298.81;;;29.82;38.14
67341;BME280;54227;45.198;5.732;2022-08-11T05:24:25;99307.28;;;29.82;37.92
67341;BME280;54227;45.198;5.732;2022-08-11T05:27:14;99307.28;;;29.82;38.07
67341;BME280;54227;45.198;5.732;2022-08-11T05:30:06;99303.66;;;29.81;37.98
67341;BME280;54227;45.198;5.732;2022-08-11T05:33:13;99310.88;;;29.82;38.01
67341;BME280;54227;45.198;5.732;2022-08-11T05:36:23;99304.44;;;29.82;38.25
67341;BME280;54227;45.198;5.732;2022-08-11T05:39:00;99309.31;;;29.81;38.11
67341;BME280;54227;45.198;5.732;2022-08-11T05:41:46;99313.72;;;29.82;38.00
67341;BME280;54227;45.198;5.732;2022-08-11T05:44:34;99313.72;;;29.82;38.04
67341;BME280;54227;45.198;5.732;2022-08-11T05:47:22;99315.72;;;29.82;38.45
67341;BME280;54227;45.198;5.732;2022-08-11T05:50:09;99319.34;;;29.82;38.15
67341;BME280;54227;45.198;5.732;2022-08-11T05:52:54;99312.47;;;29.83;37.97
67341;BME280;54227;45.198;5.732;2022-08-11T05:55:41;99318.09;;;29.83;38.38
67341;BME280;54227;45.198;5.732;2022-08-11T05:58:31;99319.34;;;29.82;38.27
67341;BME280;54227;45.198;5.732;2022-08-11T06:00:58;99318.91;;;29.84;38.48
67341;BME280;54227;45.198;5.732;2022-08-11T06:03:26;99313.53;;;29.73;37.88
67341;BME280;54227;45.198;5.732;2022-08-11T06:05:54;99309.88;;;29.56;37.77
67341;BME280;54227;45.198;5.732;2022-08-11T06:08:32;99309.47;;;29.38;39.02
67341;BME280;54227;45.198;5.732;2022-08-11T06:11:04;99304.50;;;29.26;39.17
67341;BME280;54227;45.198;5.732;2022-08-11T06:13:30;99312.47;;;29.11;39.45
67341;BME280;54227;45.198;5.732;2022-08-11T06:15:57;99306.19;;;29.03;39.57
67341;BME280;54227;45.198;5.732;2022-08-11T06:18:23;99307.03;;;29.00;39.74
67341;BME280;54227;45.198;5.732;2022-08-11T06:20:56;99311.88;;;29.00;39.61
67341;BME280;54227;45.198;5.732;2022-08-11T06:23:24;99308.66;;;29.01;39.56
67341;BME280;54227;45.198;5.732;2022-08-11T06:25:55;99309.84;;;29.00;39.57
67341;BME280;54227;45.198;5.732;2022-08-11T06:28:35;99305.81;;;29.01;39.38
67341;BME280;54227;45.198;5.732;2022-08-11T06:31:10;99308.69;;;28.98;39.50
67341;BME280;54227;45.198;5.732;2022-08-11T06:33:39;99311.81;;;29.03;39.41
67341;BME280;54227;45.198;5.732;2022-08-11T06:41:49;99299.56;;;28.94;39.12
67341;BME280;54227;45.198;5.732;2022-08-11T06:44:26;99297.94;;;28.93;39.24
67341;BME280;54227;45.198;5.732;2022-08-11T06:46:53;99298.22;;;28.98;39.07
67341;BME280;54227;45.198;5.732;2022-08-11T06:49:23;99292.25;;;28.96;39.20
67341;BME280;54227;45.198;5.732;2022-08-11T06:52:14;99298.00;;;28.89;39.35
67341;BME280;54227;45.198;5.732;2022-08-11T06:54:49;99296.84;;;28.87;38.95
67341;BME280;54227;45.198;5.732;2022-08-11T06:57:19;99301.19;;;28.91;38.91
67341;BME280;54227;45.198;5.732;2022-08-11T07:00:04;99299.56;;;28.94;38.97
67341;BME280;54227;45.198;5.732;2022-08-11T07:02:52;99295.19;;;28.89;38.90
67341;BME280;54227;45.198;5.732;2022-08-11T07:14:24;99295.22;;;28.86;38.81
67341;BME280;54227;45.198;5.732;2022-08-11T07:17:14;99289.59;;;28.86;38.50
67341;BME280;54227;45.198;5.732;2022-08-11T07:19:43;99285.94;;;28.89;38.41
67341;BME280;54227;45.198;5.732;2022-08-11T07:22:31;99287.97;;;28.88;38.23
67341;BME280;54227;45.198;5.732;2022-08-11T07:25:15;99284.34;;;28.88;38.54
67341;BME280;54227;45.198;5.732;2022-08-11T07:28:11;99283.97;;;28.86;38.71
67341;BME280;54227;45.198;5.732;2022-08-11T07:31:03;99280.00;;;28.83;38.40
67341;BME280;54227;45.198;5.732;2022-08-11T07:33:39;99275.25;;;28.80;38.30
67341;BME280;54227;45.198;5.732;2022-08-11T07:36:08;99275.31;;;28.76;38.47
67341;BME280;54227;45.198;5.732;2022-08-11T07:39:03;99277.69;;;28.78;38.46
67341;BME280;54227;45.198;5.732;2022-08-11T07:41:33;99276.47;;;28.79;38.64
67341;BME280;54227;45.198;5.732;2022-08-11T07:43:59;99267.75;;;28.73;38.69
67341;BME280;54227;45.198;5.732;2022-08-11T07:46:41;99264.16;;;28.73;38.90
67341;BME280;54227;45.198;5.732;2022-08-11T07:49:28;99268.97;;;28.72;39.14
67341;BME280;54227;45.198;5.732;2022-08-11T07:52:13;99269.69;;;28.76;39.12
67341;BME280;54227;45.198;5.732;2022-08-11T07:55:02;99259.31;;;28.73;39.19
67341;BME280;54227;45.198;5.732;2022-08-11T07:57:30;99253.25;;;28.75;38.90
67341;BME280;54227;45.198;5.732;2022-08-11T08:00:15;99251.94;;;28.79;39.03
67341;BME280;54227;45.198;5.732;2022-08-11T08:03:01;99250.72;;;28.81;38.81
67341;BME280;54227;45.198;5.732;2022-08-11T08:05:47;99246.66;;;28.82;38.88
67341;BME280;54227;45.198;5.732;2022-08-11T08:08:32;99244.22;;;28.84;38.87
67341;BME280;54227;45.198;5.732;2022-08-11T08:11:19;99253.78;;;28.86;39.07
67341;BME280;54227;45.198;5.732;2022-08-11T08:14:05;99246.59;;;28.85;38.70
67341;BME280;54227;45.198;5.732;2022-08-11T08:16:50;99242.13;;;28.88;38.57
67341;BME280;54227;45.198;5.732;2022-08-11T08:19:34;99241.34;;;28.87;38.83
67341;BME280;54227;45.198;5.732;2022-08-11T08:22:01;99241.38;;;28.84;38.72
67341;BME280;54227;45.198;5.732;2022-08-11T08:24:27;99234.19;;;28.83;38.93
67341;BME280;54227;45.198;5.732;2022-08-11T08:26:54;99222.81;;;28.86;38.60
67341;BME280;54227;45.198;5.732;2022-08-11T08:29:27;99227.66;;;28.86;38.76
67341;BME280;54227;45.198;5.732;2022-08-11T08:32:12;99220.44;;;28.85;38.79
67341;BME280;54227;45.198;5.732;2022-08-11T08:34:41;99226.88;;;28.85;38.69
67341;BME280;54227;45.198;5.732;2022-08-11T08:37:07;99224.44;;;28.87;38.59
67341;BME280;54227;45.198;5.732;2022-08-11T08:39:32;99222.75;;;28.90;38.41
67341;BME280;54227;45.198;5.732;2022-08-11T08:42:00;99212.28;;;28.90;38.35
67341;BME280;54227;45.198;5.732;2022-08-11T08:44:27;99208.69;;;28.90;38.65
67341;BME280;54227;45.198;5.732;2022-08-11T08:46:57;99209.13;;;28.88;38.41
67341;BME280;54227;45.198;5.732;2022-08-11T08:49:33;99216.78;;;28.88;38.37
67341;BME280;54227;45.198;5.732;2022-08-11T08:52:05;99205.06;;;28.89;38.65
67341;BME280;54227;45.198;5.732;2022-08-11T08:54:35;99205.41;;;28.95;38.31
67341;BME280;54227;45.198;5.732;2022-08-11T08:57:03;99200.69;;;28.88;38.52
67341;BME280;54227;45.198;5.732;2022-08-11T08:59:31;99196.28;;;28.87;38.36
67341;BME280;54227;45.198;5.732;2022-08-11T09:02:03;99197.88;;;28.88;38.30
67341;BME280;54227;45.198;5.732;2022-08-11T09:04:29;99191.00;;;28.89;38.50
67341;BME280;54227;45.198;5.732;2022-08-11T09:06:58;99186.16;;;28.90;38.40
67341;BME280;54227;45.198;5.732;2022-08-11T09:09:24;99174.97;;;28.86;38.41
67341;BME280;54227;45.198;5.732;2022-08-11T09:11:51;99181.31;;;28.90;38.39
67341;BME280;54227;45.198;5.732;2022-08-11T09:14:33;99184.56;;;28.89;38.07
67341;BME280;54227;45.198;5.732;2022-08-11T09:17:19;99171.28;;;28.89;38.32
67341;BME280;54227;45.198;5.732;2022-08-11T09:19:46;99168.84;;;28.91;38.19
67341;BME280;54227;45.198;5.732;2022-08-11T09:22:12;99169.66;;;28.92;38.38
67341;BME280;54227;45.198;5.732;2022-08-11T09:25:02;99173.25;;;28.92;38.17
67341;BME280;54227;45.198;5.732;2022-08-11T09:27:46;99163.22;;;28.91;38.17
67341;BME280;54227;45.198;5.732;2022-08-11T09:30:12;99165.25;;;28.91;37.89
67341;BME280;54227;45.198;5.732;2022-08-11T09:32:38;99155.56;;;28.92;38.19
67341;BME280;54227;45.198;5.732;2022-08-11T09:35:07;99149.56;;;28.90;38.06
67341;BME280;54227;45.198;5.732;2022-08-11T09:37:33;99149.94;;;28.92;37.98
67341;BME280;54227;45.198;5.732;2022-08-11T09:40:19;99140.63;;;28.95;38.06
67341;BME280;54227;45.198;5.732;2022-08-11T09:42:58;99141.03;;;28.93;38.07
67341;BME280;54227;45.198;5.732;2022-08-11T09:45:47;99139.47;;;28.92;37.88
67341;BME280;54227;45.198;5.732;2022-08-11T09:48:19;99131.47;;;28.91;37.74
67341;BME280;54227;45.198;5.732;2022-08-11T09:50:52;99124.22;;;28.90;37.73
67341;BME280;54227;45.198;5.732;2022-08-11T09:53:20;99128.19;;;28.92;38.19
67341;BME280;54227;45.198;5.732;2022-08-11T09:55:47;99124.59;;;28.92;38.02
67341;BME280;54227;45.198;5.732;2022-08-11T09:58:14;99126.19;;;28.93;37.79
67341;BME280;54227;45.198;5.732;2022-08-11T10:00:43;99125.47;;;28.89;37.96
67341;BME280;54227;45.198;5.732;2022-08-11T10:03:12;99119.03;;;28.88;37.78
67341;BME280;54227;45.198;5.732;2022-08-11T10:05:38;99116.56;;;28.90;37.88
67341;BME280;54227;45.198;5.732;2022-08-11T10:08:28;99106.13;;;28.91;38.06
67341;BME280;54227;45.198;5.732;2022-08-11T10:10:55;99101.28;;;28.91;37.94
67341;BME280;54227;45.198;5.732;2022-08-11T10:13:26;99096.06;;;28.90;37.97
67341;BME280;54227;45.198;5.732;2022-08-11T10:16:01;99088.41;;;28.90;37.86
67341;BME280;54227;45.198;5.732;2022-08-11T10:18:36;99085.25;;;28.88;37.80
67341;BME280;54227;45.198;5.732;2022-08-11T10:23:59;99075.38;;;28.80;38.29
67341;BME280;54227;45.198;5.732;2022-08-11T10:26:44;99071.06;;;28.75;38.32
67341;BME280;54227;45.198;5.732;2022-08-11T10:29:29;99068.16;;;28.79;38.21
67341;BME280;54227;45.198;5.732;2022-08-11T10:32:18;99066.94;;;28.80;38.42
67341;BME280;54227;45.198;5.732;2022-08-11T10:35:03;99064.47;;;28.82;38.17
67341;BME280;54227;45.198;5.732;2022-08-11T10:37:35;99070.09;;;28.82;37.42
67341;BME280;54227;45.198;5.732;2022-08-11T10:40:02;99062.16;;;28.77;37.83
67341;BME280;54227;45.198;5.732;2022-08-11T10:42:29;99056.53;;;28.77;38.35
67341;BME280;54227;45.198;5.732;2022-08-11T10:45:14;99051.00;;;28.73;38.33
67341;BME280;54227;45.198;5.732;2022-08-11T10:47:58;99043.69;;;28.76;38.25
67341;BME280;54227;45.198;5.732;2022-08-11T10:50:24;99039.66;;;28.77;38.37
67341;BME280;54227;45.198;5.732;2022-08-11T10:53:09;99029.19;;;28.77;38.28
67341;BME280;54227;45.198;5.732;2022-08-11T10:55:55;99036.31;;;28.82;37.87
67341;BME280;54227;45.198;5.732;2022-08-11T10:58:40;99026.63;;;28.83;38.09
67341;BME280;54227;45.198;5.732;2022-08-11T11:01:14;99022.94;;;28.86;38.07
67341;BME280;54227;45.198;5.732;2022-08-11T11:03:41;99018.13;;;28.87;38.19
67341;BME280;54227;45.198;5.732;2022-08-11T11:09:04;99018.53;;;28.85;37.39
67341;BME280;54227;45.198;5.732;2022-08-11T11:11:55;99009.03;;;28.79;38.12
67341;BME280;54227;45.198;5.732;2022-08-11T11:14:41;99011.50;;;28.77;38.11
67341;BME280;54227;45.198;5.732;2022-08-11T11:17:41;99003.06;;;28.77;38.37
67341;BME280;54227;45.198;5.732;2022-08-11T11:20:35;98998.66;;;28.76;38.44
67341;BME280;54227;45.198;5.732;2022-08-11T11:23:11;98995.34;;;28.81;38.36
67341;BME280;54227;45.198;5.732;2022-08-11T11:37:06;98970.63;;;28.72;38.39
67341;BME280;54227;45.198;5.732;2022-08-11T11:39:32;98971.41;;;28.73;38.31
67341;BME280;54227;45.198;5.732;2022-08-11T11:42:02;98964.09;;;28.75;38.45
67341;BME280;54227;45.198;5.732;2022-08-11T11:44:29;98971.22;;;28.80;38.41
67341;BME280;54227;45.198;5.732;2022-08-11T11:46:57;98962.34;;;28.82;38.26
67341;BME280;54227;45.198;5.732;2022-08-11T11:49:26;98957.84;;;28.84;37.99
67341;BME280;54227;45.198;5.732;2022-08-11T11:51:54;98950.97;;;28.85;38.21
67341;BME280;54227;45.198;5.732;2022-08-11T11:54:23;98946.94;;;28.86;37.91
67341;BME280;54227;45.198;5.732;2022-08-11T11:56:50;98953.25;;;28.90;37.97
67341;BME280;54227;45.198;5.732;2022-08-11T11:59:19;98945.28;;;28.89;36.96
67341;BME280;54227;45.198;5.732;2022-08-11T12:02:05;98941.84;;;28.81;37.73
67341;BME280;54227;45.198;5.732;2022-08-11T12:04:31;98941.13;;;28.77;37.93
67341;BME280;54227;45.198;5.732;2022-08-11T12:06:57;98932.34;;;28.75;37.79
67341;BME280;54227;45.198;5.732;2022-08-11T12:09:45;98942.38;;;28.76;37.86
67341;BME280;54227;45.198;5.732;2022-08-11T12:12:11;98924.97;;;28.81;37.96
67341;BME280;54227;45.198;5.732;2022-08-11T12:14:57;98926.53;;;28.82;37.68
67341;BME280;54227;45.198;5.732;2022-08-11T12:17:22;98923.63;;;28.86;37.83
67341;BME280;54227;45.198;5.732;2022-08-11T12:19:49;98918.34;;;28.88;37.51
67341;BME280;54227;45.198;5.732;2022-08-11T12:22:15;98915.09;;;28.89;37.66
67341;BME280;54227;45.198;5.732;2022-08-11T12:25:00;98908.66;;;28.89;37.69
67341;BME280;54227;45.198;5.732;2022-08-11T12:27:44;98901.00;;;28.89;37.72
67341;BME280;54227;45.198;5.732;2022-08-11T12:30:11;98913.44;;;28.92;37.51
67341;BME280;54227;45.198;5.732;2022-08-11T12:32:38;98912.97;;;28.93;37.40
67341;BME280;54227;45.198;5.732;2022-08-11T12:35:05;98895.75;;;28.91;37.13
67341;BME280;54227;45.198;5.732;2022-08-11T12:37:34;98900.16;;;28.92;37.55
67341;BME280;54227;45.198;5.732;2022-08-11T12:40:06;98902.53;;;28.94;37.55
67341;BME280;54227;45.198;5.732;2022-08-11T12:42:53;98890.81;;;28.95;37.55
67341;BME280;54227;45.198;5.732;2022-08-11T12:45:39;98887.56;;;28.97;37.21
67341;BME280;54227;45.198;5.732;2022-08-11T12:48:40;98884.75;;;28.97;37.35
67341;BME280;54227;45.198;5.732;2022-08-11T12:51:21;98884.28;;;28.98;37.37
67341;BME280;54227;45.198;5.732;2022-08-11T12:56:41;98883.97;;;28.96;37.21
67341;BME280;54227;45.198;5.732;2022-08-11T12:59:26;98881.47;;;28.98;37.00
67341;BME280;54227;45.198;5.732;2022-08-11T13:02:15;98873.47;;;28.97;37.13
67341;BME280;54227;45.198;5.732;2022-08-11T13:05:02;98872.25;;;28.98;36.93
67341;BME280;54227;45.198;5.732;2022-08-11T13:07:29;98855.69;;;29.00;37.47
67341;BME280;54227;45.198;5.732;2022-08-11T13:09:57;98856.13;;;28.98;37.12
67341;BME280;54227;45.198;5.732;2022-08-11T13:12:24;98846.13;;;28.97;37.00
67341;BME280;54227;45.198;5.732;2022-08-11T13:15:10;98843.31;;;28.97;37.23
67341;BME280;54227;45.198;5.732;2022-08-11T13:17:37;98847.69;;;28.98;37.08
67341;BME280;54227;45.198;5.732;2022-08-11T13:20:03;98844.44;;;29.00;36.85
67341;BME280;54227;45.198;5.732;2022-08-11T13:22:30;98842.41;;;29.00;37.12
67341;BME280;54227;45.198;5.732;2022-08-11T13:24:57;98843.22;;;29.01;36.74
67341;BME280;54227;45.198;5.732;2022-08-11T13:27:23;98833.94;;;29.00;36.83
67341;BME280;54227;45.198;5.732;2022-08-11T13:29:49;98834.31;;;29.02;36.94
67341;BME280;54227;45.198;5.732;2022-08-11T13:32:19;98828.31;;;29.00;36.83
67341;BME280;54227;45.198;5.732;2022-08-11T13:34:45;98827.44;;;29.03;36.86
67341;BME280;54227;45.198;5.732;2022-08-11T13:37:12;98821.81;;;29.03;36.75
67341;BME280;54227;45.198;5.732;2022-08-11T13:39:42;98815.41;;;29.03;36.65
67341;BME280;54227;45.198;5.732;2022-08-11T13:42:12;98808.38;;;28.95;36.55
67341;BME280;54227;45.198;5.732;2022-08-11T13:44:40;98787.97;;;28.91;37.02
67341;BME280;54227;45.198;5.732;2022-08-11T13:47:06;98802.94;;;28.88;36.84
67341;BME280;54227;45.198;5.732;2022-08-11T13:49:35;98801.34;;;28.87;37.16
67341;BME280;54227;45.198;5.732;2022-08-11T13:52:02;98800.91;;;28.88;36.99
67341;BME280;54227;45.198;5.732;2022-08-11T13:54:34;98802.06;;;28.91;36.86
67341;BME280;54227;45.198;5.732;2022-08-11T13:57:05;98786.38;;;28.90;36.97
67341;BME280;54227;45.198;5.732;2022-08-11T13:59:31;98789.47;;;28.95;36.87
67341;BME280;54227;45.198;5.732;2022-08-11T14:01:59;98781.81;;;28.96;36.83
67341;BME280;54227;45.198;5.732;2022-08-11T14:04:31;98779.44;;;28.94;36.99
67341;BME280;54227;45.198;5.732;2022-08-11T14:07:02;98789.81;;;28.97;37.09
67341;BME280;54227;45.198;5.732;2022-08-11T14:09:35;98787.00;;;28.97;37.04
67341;BME280;54227;45.198;5.732;2022-08-11T14:12:17;98787.91;;;28.94;36.29
67341;BME280;54227;45.198;5.732;2022-08-11T14:15:09;98778.72;;;28.90;37.04
67341;BME280;54227;45.198;5.732;2022-08-11T14:17:38;98778.13;;;28.83;37.32
67341;BME280;54227;45.198;5.732;2022-08-11T14:20:07;98774.06;;;28.84;37.23
67341;BME280;54227;45.198;5.732;2022-08-11T14:22:36;98773.19;;;28.87;37.45
67341;BME280;54227;45.198;5.732;2022-08-11T14:25:05;98772.38;;;28.86;36.96
67341;BME280;54227;45.198;5.732;2022-08-11T14:27:31;98768.91;;;28.82;36.90
67341;BME280;54227;45.198;5.732;2022-08-11T14:29:57;98751.88;;;28.73;37.49
67341;BME280;54227;45.198;5.732;2022-08-11T14:32:24;98765.50;;;28.74;37.38
67341;BME280;54227;45.198;5.732;2022-08-11T14:34:51;98773.50;;;28.76;37.32
67341;BME280;54227;45.198;5.732;2022-08-11T14:37:21;98774.28;;;28.76;37.28
67341;BME280;54227;45.198;5.732;2022-08-11T14:39:53;98768.56;;;28.80;37.24
67341;BME280;54227;45.198;5.732;2022-08-11T14:42:22;98758.88;;;28.81;36.98
67341;BME280;54227;45.198;5.732;2022-08-11T14:45:10;98762.38;;;28.85;37.01
67341;BME280;54227;45.198;5.732;2022-08-11T14:48:02;98767.91;;;28.89;37.21
67341;BME280;54227;45.198;5.732;2022-08-11T14:50:31;98761.81;;;28.90;37.12
67341;BME280;54227;45.198;5.732;2022-08-11T14:53:04;98765.09;;;28.89;36.87
67341;BME280;54227;45.198;5.732;2022-08-11T14:55:34;98756.19;;;28.90;36.93
67341;BME280;54227;45.198;5.732;2022-08-11T14:58:21;98752.16;;;28.91;37.10
67341;BME280;54227;45.198;5.732;2022-08-11T15:00:53;98736.84;;;28.92;36.94
67341;BME280;54227;45.198;5.732;2022-08-11T15:03:20;98733.63;;;28.94;36.79
67341;BME280;54227;45.198;5.732;2022-08-11T15:05:55;98735.19;;;28.95;36.73
67341;BME280;54227;45.198;5.732;2022-08-11T15:08:22;98707.81;;;28.95;36.67
67341;BME280;54227;45.198;5.732;2022-08-11T15:11:13;98729.91;;;28.97;36.78
67341;BME280;54227;45.198;5.732;2022-08-11T15:13:59;98722.22;;;28.97;36.79
67341;BME280;54227;45.198;5.732;2022-08-11T15:16:26;98731.81;;;29.00;36.77
67341;BME280;54227;45.198;5.732;2022-08-11T15:19:11;98725.38;;;28.99;36.51
67341;BME280;54227;45.198;5.732;2022-08-11T15:21:37;98716.59;;;28.97;36.07
67341;BME280;54227;45.198;5.732;2022-08-11T15:24:21;98729.28;;;28.89;36.44
67341;BME280;54227;45.198;5.732;2022-08-11T15:26:49;98717.91;;;28.80;37.23
67341;BME280;54227;45.198;5.732;2022-08-11T15:29:34;98723.63;;;28.76;37.08
67341;BME280;54227;45.198;5.732;2022-08-11T15:32:21;98725.97;;;28.78;37.40
67341;BME280;54227;45.198;5.732;2022-08-11T15:35:08;98719.47;;;28.81;37.02
67341;BME280;54227;45.198;5.732;2022-08-11T15:37:55;98718.13;;;28.86;37.06
67341;BME280;54227;45.198;5.732;2022-08-11T15:40:30;98720.50;;;28.87;37.20
67341;BME280;54227;45.198;5.732;2022-08-11T15:43:32;98713.63;;;28.88;36.33
67341;BME280;54227;45.198;5.732;2022-08-11T15:46:24;98705.47;;;28.77;37.50
67341;BME280;54227;45.198;5.732;2022-08-11T15:48:58;98706.94;;;28.69;37.39
67341;BME280;54227;45.198;5.732;2022-08-11T15:51:52;98709.28;;;28.71;37.52
67341;BME280;54227;45.198;5.732;2022-08-11T15:54:22;98701.88;;;28.77;37.56
67341;BME280;54227;45.198;5.732;2022-08-11T15:56:51;98708.66;;;28.79;37.19
67341;BME280;54227;45.198;5.732;2022-08-11T15:59:18;98702.78;;;28.74;36.51
67341;BME280;54227;45.198;5.732;2022-08-11T16:02:03;98709.28;;;28.71;37.52
67341;BME280;54227;45.198;5.732;2022-08-11T16:04:49;98706.16;;;28.69;37.71
67341;BME280;54227;45.198;5.732;2022-08-11T16:07:19;98710.09;;;28.71;37.73
67341;BME280;54227;45.198;5.732;2022-08-11T16:10:10;98699.97;;;28.74;37.52
67341;BME280;54227;45.198;5.732;2022-08-11T16:12:42;98705.47;;;28.77;37.61
67341;BME280;54227;45.198;5.732;2022-08-11T16:15:29;98701.00;;;28.80;37.01
67341;BME280;54227;45.198;5.732;2022-08-11T16:18:15;98702.00;;;28.73;37.23
67341;BME280;54227;45.198;5.732;2022-08-11T16:20:44;98702.88;;;28.70;37.55
67341;BME280;54227;45.198;5.732;2022-08-11T16:23:12;98703.00;;;28.67;37.91
67341;BME280;54227;45.198;5.732;2022-08-11T16:25:40;98701.31;;;28.69;37.53
67341;BME280;54227;45.198;5.732;2022-08-11T16:28:08;98692.78;;;28.73;37.69
67341;BME280;54227;45.198;5.732;2022-08-11T16:30:39;98692.66;;;28.76;37.55
67341;BME280;54227;45.198;5.732;2022-08-11T16:33:08;98701.09;;;28.76;37.08
67341;BME280;54227;45.198;5.732;2022-08-11T16:35:36;98693.66;;;28.70;37.78
67341;BME280;54227;45.198;5.732;2022-08-11T16:38:23;98695.78;;;28.66;37.81
67341;BME280;54227;45.198;5.732;2022-08-11T16:41:14;98696.56;;;28.66;37.67
67341;BME280;54227;45.198;5.732;2022-08-11T16:44:01;98684.41;;;28.69;37.72
67341;BME280;54227;45.198;5.732;2022-08-11T16:46:46;98687.16;;;28.73;37.88
67341;BME280;54227;45.198;5.732;2022-08-11T16:49:42;98684.66;;;28.75;37.64
67341;BME280;54227;45.198;5.732;2022-08-11T16:52:11;98687.03;;;28.76;37.38
67341;BME280;54227;45.198;5.732;2022-08-11T16:54:37;98687.56;;;28.71;37.53
67341;BME280;54227;45.198;5.732;2022-08-11T16:57:09;98686.09;;;28.67;38.17
67341;BME280;54227;45.198;5.732;2022-08-11T16:59:57;98681.59;;;28.69;37.85
67341;BME280;54227;45.198;5.732;2022-08-11T17:02:31;98681.16;;;28.71;37.79
67341;BME280;54227;45.198;5.732;2022-08-11T17:05:24;98681.63;;;28.82;37.94
67341;BME280;54227;45.198;5.732;2022-08-11T17:08:09;98685.03;;;28.90;37.50
67341;BME280;54227;45.198;5.732;2022-08-11T17:11:07;98684.38;;;28.98;37.78